sensor_id;sensor_type;location;lat;lon;timestamp;temperature;humidity
70079;DHT22;57451;52.496;13.456;2022-08-01T00:00:28;23.50;50.90
70079;DHT22;57451;52.496;13.456;2022-08-01T00:02:54;23.50;50.70
70079;DHT22;57451;52.496;13.456;2022-08-01T00:05:22;23.50;50.70
70079;DHT22;57451;52.496;13.456;2022-08-01T00:07:48;23.50;50.10
70079;DHT22;57451;52.496;13.456;2022-08-01T00:10:15;23.50;50.60
70079;DHT22;57451;52.496;13.456;2022-08-01T00:12:43;23.50;50.50
70079;DHT22;57451;52.496;13.456;2022-08-01T00:15:11;23.40;51.20
70079;DHT22;57451;52.496;13.456;2022-08-01T00:17:38;23.40;51.20
70079;DHT22;57451;52.496;13.456;2022-08-01T00:20:06;23.30;51.80
70079;DHT22;57451;52.496;13.456;2022-08-01T00:22:34;23.30;52.40
70079;DHT22;57451;52.496;13.456;2022-08-01T00:25:02;23.20;52.70
70079;DHT22;57451;52.496;13.456;2022-08-01T00:27:29;23.10;53.00
70079;DHT22;57451;52.496;13.456;2022-08-01T00:29:55;23.10;53.40
70079;DHT22;57451;52.496;13.456;2022-08-01T00:32:21;23.10;53.80
70079;DHT22;57451;52.496;13.456;2022-08-01T00:34:48;23.00;54.20
70079;DHT22;57451;52.496;13.456;2022-08-01T00:37:14;23.00;53.70
70079;DHT22;57451;52.496;13.456;2022-08-01T00:39:41;23.00;53.40
70079;DHT22;57451;52.496;13.456;2022-08-01T00:42:09;23.10;53.90
70079;DHT22;57451;52.496;13.456;2022-08-01T00:44:35;23.10;53.50
70079;DHT22;57451;52.496;13.456;2022-08-01T00:47:02;23.00;54.80
70079;DHT22;57451;52.496;13.456;2022-08-01T00:49:28;22.90;55.00
70079;DHT22;57451;52.496;13.456;2022-08-01T00:51:55;22.90;54.50
70079;DHT22;57451;52.496;13.456;2022-08-01T00:54:22;22.90;54.90
70079;DHT22;57451;52.496;13.456;2022-08-01T00:56:50;22.90;54.80
70079;DHT22;57451;52.496;13.456;2022-08-01T00:59:18;22.90;54.40
70079;DHT22;57451;52.496;13.456;2022-08-01T01:01:44;22.90;54.80
70079;DHT22;57451;52.496;13.456;2022-08-01T01:04:10;22.90;55.70
70079;DHT22;57451;52.496;13.456;2022-08-01T01:06:43;22.90;55.70
70079;DHT22;57451;52.496;13.456;2022-08-01T01:09:17;22.90;55.30
70079;DHT22;57451;52.496;13.456;2022-08-01T01:12:01;22.90;55.30
70079;DHT22;57451;52.496;13.456;2022-08-01T01:14:34;22.90;56.00
70079;DHT22;57451;52.496;13.456;2022-08-01T01:17:03;22.90;57.10
70079;DHT22;57451;52.496;13.456;2022-08-01T01:19:35;22.80;57.10
70079;DHT22;57451;52.496;13.456;2022-08-01T01:22:21;22.70;56.00
70079;DHT22;57451;52.496;13.456;2022-08-01T01:25:01;22.70;55.90
70079;DHT22;57451;52.496;13.456;2022-08-01T01:27:36;22.70;55.60
70079;DHT22;57451;52.496;13.456;2022-08-01T01:30:07;22.70;57.00
70079;DHT22;57451;52.496;13.456;2022-08-01T01:32:36;22.70;56.50
70079;DHT22;57451;52.496;13.456;2022-08-01T01:35:07;22.70;56.40
70079;DHT22;57451;52.496;13.456;2022-08-01T01:37:35;22.60;55.80
70079;DHT22;57451;52.496;13.456;2022-08-01T01:40:05;22.60;57.10
70079;DHT22;57451;52.496;13.456;2022-08-01T01:42:32;22.60;57.30
70079;DHT22;57451;52.496;13.456;2022-08-01T01:44:58;22.60;57.70
70079;DHT22;57451;52.496;13.456;2022-08-01T01:47:27;22.50;57.60
70079;DHT22;57451;52.496;13.456;2022-08-01T01:49:55;22.50;57.90
70079;DHT22;57451;52.496;13.456;2022-08-01T01:52:23;22.40;57.80
70079;DHT22;57451;52.496;13.456;2022-08-01T01:54:51;22.50;57.20
70079;DHT22;57451;52.496;13.456;2022-08-01T01:57:18;22.50;58.40
70079;DHT22;57451;52.496;13.456;2022-08-01T01:59:46;22.40;58.10
70079;DHT22;57451;52.496;13.456;2022-08-01T02:02:14;22.40;58.80
70079;DHT22;57451;52.496;13.456;2022-08-01T02:04:45;22.40;58.50
70079;DHT22;57451;52.496;13.456;2022-08-01T02:07:17;22.40;58.40
70079;DHT22;57451;52.496;13.456;2022-08-01T02:09:44;22.40;57.90
70079;DHT22;57451;52.496;13.456;2022-08-01T02:12:12;22.30;58.50
70079;DHT22;57451;52.496;13.456;2022-08-01T02:14:39;22.30;58.80
70079;DHT22;57451;52.496;13.456;2022-08-01T02:17:09;22.30;58.50
70079;DHT22;57451;52.496;13.456;2022-08-01T02:19:37;22.30;57.90
70079;DHT22;57451;52.496;13.456;2022-08-01T02:22:09;22.30;58.10
70079;DHT22;57451;52.496;13.456;2022-08-01T02:24:39;22.20;59.00
70079;DHT22;57451;52.496;13.456;2022-08-01T02:27:09;22.20;58.30
70079;DHT22;57451;52.496;13.456;2022-08-01T02:29:39;22.20;59.70
70079;DHT22;57451;52.496;13.456;2022-08-01T02:32:08;22.10;59.40
70079;DHT22;57451;52.496;13.456;2022-08-01T02:34:36;22.00;59.70
70079;DHT22;57451;52.496;13.456;2022-08-01T02:37:04;22.00;59.90
70079;DHT22;57451;52.496;13.456;2022-08-01T02:39:31;21.90;60.10
70079;DHT22;57451;52.496;13.456;2022-08-01T02:42:02;21.90;59.90
70079;DHT22;57451;52.496;13.456;2022-08-01T02:44:34;21.90;59.70
70079;DHT22;57451;52.496;13.456;2022-08-01T02:47:02;21.90;58.80
70079;DHT22;57451;52.496;13.456;2022-08-01T02:49:31;21.90;60.10
70079;DHT22;57451;52.496;13.456;2022-08-01T02:51:59;21.80;60.80
70079;DHT22;57451;52.496;13.456;2022-08-01T02:54:29;21.80;59.30
70079;DHT22;57451;52.496;13.456;2022-08-01T02:56:57;21.80;61.20
70079;DHT22;57451;52.496;13.456;2022-08-01T02:59:24;21.70;60.20
70079;DHT22;57451;52.496;13.456;2022-08-01T03:01:54;21.70;60.70
70079;DHT22;57451;52.496;13.456;2022-08-01T03:04:22;21.70;61.60
70079;DHT22;57451;52.496;13.456;2022-08-01T03:06:48;21.60;60.00
70079;DHT22;57451;52.496;13.456;2022-08-01T03:09:16;21.60;61.60
70079;DHT22;57451;52.496;13.456;2022-08-01T03:11:45;21.60;61.40
70079;DHT22;57451;52.496;13.456;2022-08-01T03:14:13;21.70;60.60
70079;DHT22;57451;52.496;13.456;2022-08-01T03:16:41;21.70;61.00
70079;DHT22;57451;52.496;13.456;2022-08-01T03:19:09;21.70;61.10
70079;DHT22;57451;52.496;13.456;2022-08-01T03:21:37;21.70;60.30
70079;DHT22;57451;52.496;13.456;2022-08-01T03:24:06;21.70;60.60
70079;DHT22;57451;52.496;13.456;2022-08-01T03:26:35;21.60;62.40
70079;DHT22;57451;52.496;13.456;2022-08-01T03:29:05;21.60;61.10
70079;DHT22;57451;52.496;13.456;2022-08-01T03:31:35;21.60;62.20
70079;DHT22;57451;52.496;13.456;2022-08-01T03:34:02;21.60;62.30
70079;DHT22;57451;52.496;13.456;2022-08-01T03:36:28;21.50;62.20
70079;DHT22;57451;52.496;13.456;2022-08-01T03:38:59;21.50;62.20
70079;DHT22;57451;52.496;13.456;2022-08-01T03:41:29;21.50;62.50
70079;DHT22;57451;52.496;13.456;2022-08-01T03:44:01;21.50;62.80
70079;DHT22;57451;52.496;13.456;2022-08-01T03:46:35;21.50;62.30
70079;DHT22;57451;52.496;13.456;2022-08-01T03:49:07;21.50;62.70
70079;DHT22;57451;52.496;13.456;2022-08-01T03:51:37;21.50;63.00
70079;DHT22;57451;52.496;13.456;2022-08-01T03:54:05;21.40;63.40
70079;DHT22;57451;52.496;13.456;2022-08-01T03:56:33;21.40;63.20
70079;DHT22;57451;52.496;13.456;2022-08-01T03:58:59;21.40;62.50
70079;DHT22;57451;52.496;13.456;2022-08-01T04:01:27;21.30;64.30
70079;DHT22;57451;52.496;13.456;2022-08-01T04:03:58;21.30;64.20
70079;DHT22;57451;52.496;13.456;2022-08-01T04:06:25;21.30;64.70
70079;DHT22;57451;52.496;13.456;2022-08-01T04:08:51;21.20;63.90
70079;DHT22;57451;52.496;13.456;2022-08-01T04:11:24;21.30;63.60
70079;DHT22;57451;52.496;13.456;2022-08-01T04:13:51;21.40;64.10
70079;DHT22;57451;52.496;13.456;2022-08-01T04:16:17;21.40;64.50
70079;DHT22;57451;52.496;13.456;2022-08-01T04:18:43;21.40;64.60
70079;DHT22;57451;52.496;13.456;2022-08-01T04:21:11;21.40;64.90
70079;DHT22;57451;52.496;13.456;2022-08-01T04:23:39;21.40;64.50
70079;DHT22;57451;52.496;13.456;2022-08-01T04:26:08;21.40;64.60
70079;DHT22;57451;52.496;13.456;2022-08-01T04:28:36;21.40;64.90
70079;DHT22;57451;52.496;13.456;2022-08-01T04:31:06;21.40;64.20
70079;DHT22;57451;52.496;13.456;2022-08-01T04:33:35;21.40;64.30
70079;DHT22;57451;52.496;13.456;2022-08-01T04:36:04;21.40;64.40
70079;DHT22;57451;52.496;13.456;2022-08-01T04:38:34;21.50;65.00
70079;DHT22;57451;52.496;13.456;2022-08-01T04:41:02;21.40;64.80
70079;DHT22;57451;52.496;13.456;2022-08-01T04:43:29;21.40;64.00
70079;DHT22;57451;52.496;13.456;2022-08-01T04:45:55;21.50;64.20
70079;DHT22;57451;52.496;13.456;2022-08-01T04:48:23;21.50;64.50
70079;DHT22;57451;52.496;13.456;2022-08-01T04:50:50;21.50;65.70
70079;DHT22;57451;52.496;13.456;2022-08-01T04:53:18;21.50;65.00
70079;DHT22;57451;52.496;13.456;2022-08-01T04:55:46;21.50;65.20
70079;DHT22;57451;52.496;13.456;2022-08-01T04:58:13;21.50;65.30
70079;DHT22;57451;52.496;13.456;2022-08-01T05:00:39;21.50;65.70
70079;DHT22;57451;52.496;13.456;2022-08-01T05:03:06;21.50;65.30
70079;DHT22;57451;52.496;13.456;2022-08-01T05:05:32;21.50;65.80
70079;DHT22;57451;52.496;13.456;2022-08-01T05:07:59;21.50;66.20
70079;DHT22;57451;52.496;13.456;2022-08-01T05:10:26;21.40;66.50
70079;DHT22;57451;52.496;13.456;2022-08-01T05:12:54;21.40;67.20
70079;DHT22;57451;52.496;13.456;2022-08-01T05:15:20;21.40;66.70
70079;DHT22;57451;52.496;13.456;2022-08-01T05:17:47;21.50;66.20
70079;DHT22;57451;52.496;13.456;2022-08-01T05:20:13;21.50;65.90
70079;DHT22;57451;52.496;13.456;2022-08-01T05:22:39;21.50;65.70
70079;DHT22;57451;52.496;13.456;2022-08-01T05:25:06;21.50;66.10
70079;DHT22;57451;52.496;13.456;2022-08-01T05:27:32;21.50;65.80
70079;DHT22;57451;52.496;13.456;2022-08-01T05:30:06;21.60;67.10
70079;DHT22;57451;52.496;13.456;2022-08-01T05:32:32;21.60;66.30
70079;DHT22;57451;52.496;13.456;2022-08-01T05:34:58;21.50;66.70
70079;DHT22;57451;52.496;13.456;2022-08-01T05:37:25;21.50;67.10
70079;DHT22;57451;52.496;13.456;2022-08-01T05:39:51;21.60;66.60
70079;DHT22;57451;52.496;13.456;2022-08-01T05:42:17;21.60;67.10
70079;DHT22;57451;52.496;13.456;2022-08-01T05:44:43;21.60;67.30
70079;DHT22;57451;52.496;13.456;2022-08-01T05:47:11;21.60;66.20
70079;DHT22;57451;52.496;13.456;2022-08-01T05:49:37;21.60;65.60
70079;DHT22;57451;52.496;13.456;2022-08-01T05:52:03;21.70;65.70
70079;DHT22;57451;52.496;13.456;2022-08-01T05:54:31;21.70;66.90
70079;DHT22;57451;52.496;13.456;2022-08-01T05:56:57;21.70;66.40
70079;DHT22;57451;52.496;13.456;2022-08-01T05:59:27;21.70;67.00
70079;DHT22;57451;52.496;13.456;2022-08-01T06:01:53;21.70;67.40
70079;DHT22;57451;52.496;13.456;2022-08-01T06:04:21;21.70;67.40
70079;DHT22;57451;52.496;13.456;2022-08-01T06:06:47;21.70;67.40
70079;DHT22;57451;52.496;13.456;2022-08-01T06:09:14;21.70;66.60
70079;DHT22;57451;52.496;13.456;2022-08-01T06:11:40;21.70;67.30
70079;DHT22;57451;52.496;13.456;2022-08-01T06:14:06;21.80;66.80
70079;DHT22;57451;52.496;13.456;2022-08-01T06:16:33;21.80;66.60
70079;DHT22;57451;52.496;13.456;2022-08-01T06:18:59;21.90;66.60
70079;DHT22;57451;52.496;13.456;2022-08-01T06:21:27;21.80;66.40
70079;DHT22;57451;52.496;13.456;2022-08-01T06:23:53;21.90;66.40
70079;DHT22;57451;52.496;13.456;2022-08-01T06:26:19;21.90;66.50
70079;DHT22;57451;52.496;13.456;2022-08-01T06:28:46;21.90;66.50
70079;DHT22;57451;52.496;13.456;2022-08-01T06:31:12;21.90;66.80
70079;DHT22;57451;52.496;13.456;2022-08-01T06:33:39;21.90;66.50
70079;DHT22;57451;52.496;13.456;2022-08-01T06:36:06;21.90;66.80
70079;DHT22;57451;52.496;13.456;2022-08-01T06:38:33;21.90;66.50
70079;DHT22;57451;52.496;13.456;2022-08-01T06:40:59;21.90;66.30
70079;DHT22;57451;52.496;13.456;2022-08-01T06:43:25;21.90;66.50
70079;DHT22;57451;52.496;13.456;2022-08-01T06:45:52;22.00;66.40
70079;DHT22;57451;52.496;13.456;2022-08-01T06:48:18;22.00;66.70
70079;DHT22;57451;52.496;13.456;2022-08-01T06:50:44;22.00;66.30
70079;DHT22;57451;52.496;13.456;2022-08-01T06:53:10;22.00;66.30
70079;DHT22;57451;52.496;13.456;2022-08-01T06:55:38;22.00;66.70
70079;DHT22;57451;52.496;13.456;2022-08-01T06:58:04;22.00;66.40
70079;DHT22;57451;52.496;13.456;2022-08-01T07:00:30;22.00;66.20
70079;DHT22;57451;52.496;13.456;2022-08-01T07:02:57;22.10;65.80
70079;DHT22;57451;52.496;13.456;2022-08-01T07:05:25;22.10;65.70
70079;DHT22;57451;52.496;13.456;2022-08-01T07:07:51;22.20;65.20
70079;DHT22;57451;52.496;13.456;2022-08-01T07:10:18;22.20;65.40
70079;DHT22;57451;52.496;13.456;2022-08-01T07:12:45;22.20;65.10
70079;DHT22;57451;52.496;13.456;2022-08-01T07:15:11;22.30;64.50
70079;DHT22;57451;52.496;13.456;2022-08-01T07:17:38;22.30;65.00
70079;DHT22;57451;52.496;13.456;2022-08-01T07:20:06;22.30;64.70
70079;DHT22;57451;52.496;13.456;2022-08-01T07:22:33;22.30;64.80
70079;DHT22;57451;52.496;13.456;2022-08-01T07:24:59;22.30;64.50
70079;DHT22;57451;52.496;13.456;2022-08-01T07:27:25;22.30;64.70
70079;DHT22;57451;52.496;13.456;2022-08-01T07:29:52;22.40;64.60
70079;DHT22;57451;52.496;13.456;2022-08-01T07:32:19;22.40;63.80
70079;DHT22;57451;52.496;13.456;2022-08-01T07:34:45;22.50;64.00
70079;DHT22;57451;52.496;13.456;2022-08-01T07:37:11;22.40;64.20
70079;DHT22;57451;52.496;13.456;2022-08-01T07:39:37;22.50;64.30
70079;DHT22;57451;52.496;13.456;2022-08-01T07:42:04;22.50;63.40
70079;DHT22;57451;52.496;13.456;2022-08-01T07:44:30;22.50;63.70
70079;DHT22;57451;52.496;13.456;2022-08-01T07:46:57;22.50;64.00
70079;DHT22;57451;52.496;13.456;2022-08-01T07:49:24;22.60;63.80
70079;DHT22;57451;52.496;13.456;2022-08-01T07:51:50;22.60;64.20
70079;DHT22;57451;52.496;13.456;2022-08-01T07:54:16;22.50;63.70
70079;DHT22;57451;52.496;13.456;2022-08-01T07:56:42;22.50;64.60
70079;DHT22;57451;52.496;13.456;2022-08-01T07:59:08;22.40;64.80
70079;DHT22;57451;52.496;13.456;2022-08-01T08:01:34;22.50;65.10
70079;DHT22;57451;52.496;13.456;2022-08-01T08:04:02;22.50;64.10
70079;DHT22;57451;52.496;13.456;2022-08-01T08:06:28;22.50;63.70
70079;DHT22;57451;52.496;13.456;2022-08-01T08:08:54;22.50;63.50
70079;DHT22;57451;52.496;13.456;2022-08-01T08:11:21;22.50;63.30
70079;DHT22;57451;52.496;13.456;2022-08-01T08:13:47;22.50;63.20
70079;DHT22;57451;52.496;13.456;2022-08-01T08:16:13;22.50;63.00
70079;DHT22;57451;52.496;13.456;2022-08-01T08:18:39;22.50;63.10
70079;DHT22;57451;52.496;13.456;2022-08-01T08:21:07;22.50;63.00
70079;DHT22;57451;52.496;13.456;2022-08-01T08:23:33;22.50;63.00
70079;DHT22;57451;52.496;13.456;2022-08-01T08:26:25;22.50;63.40
70079;DHT22;57451;52.496;13.456;2022-08-01T08:28:52;22.50;62.90
70079;DHT22;57451;52.496;13.456;2022-08-01T08:31:18;22.40;63.10
70079;DHT22;57451;52.496;13.456;2022-08-01T08:33:44;22.40;63.30
70079;DHT22;57451;52.496;13.456;2022-08-01T08:36:13;22.40;62.80
70079;DHT22;57451;52.496;13.456;2022-08-01T08:38:39;22.40;63.20
70079;DHT22;57451;52.496;13.456;2022-08-01T08:41:05;22.40;63.20
70079;DHT22;57451;52.496;13.456;2022-08-01T08:43:32;22.30;63.20
70079;DHT22;57451;52.496;13.456;2022-08-01T08:45:58;22.20;63.00
70079;DHT22;57451;52.496;13.456;2022-08-01T08:48:25;22.30;63.00
70079;DHT22;57451;52.496;13.456;2022-08-01T08:50:52;22.20;62.90
70079;DHT22;57451;52.496;13.456;2022-08-01T08:53:20;22.20;63.30
70079;DHT22;57451;52.496;13.456;2022-08-01T08:55:47;22.20;63.00
70079;DHT22;57451;52.496;13.456;2022-08-01T08:58:15;22.20;62.80
70079;DHT22;57451;52.496;13.456;2022-08-01T09:00:43;22.30;62.80
70079;DHT22;57451;52.496;13.456;2022-08-01T09:03:09;22.40;62.10
70079;DHT22;57451;52.496;13.456;2022-08-01T09:05:36;22.40;61.80
70079;DHT22;57451;52.496;13.456;2022-08-01T09:08:06;22.40;61.70
70079;DHT22;57451;52.496;13.456;2022-08-01T09:10:34;22.30;61.90
70079;DHT22;57451;52.496;13.456;2022-08-01T09:13:05;22.30;61.60
70079;DHT22;57451;52.496;13.456;2022-08-01T09:15:43;22.30;61.40
70079;DHT22;57451;52.496;13.456;2022-08-01T09:18:28;22.40;61.40
70079;DHT22;57451;52.496;13.456;2022-08-01T09:21:16;22.40;61.00
70079;DHT22;57451;52.496;13.456;2022-08-01T09:23:44;22.50;61.10
70079;DHT22;57451;52.496;13.456;2022-08-01T09:26:14;22.60;60.70
70079;DHT22;57451;52.496;13.456;2022-08-01T09:28:41;22.60;60.40
70079;DHT22;57451;52.496;13.456;2022-08-01T09:31:09;22.60;60.30
70079;DHT22;57451;52.496;13.456;2022-08-01T09:33:50;22.70;59.90
70079;DHT22;57451;52.496;13.456;2022-08-01T09:36:17;22.60;60.00
70079;DHT22;57451;52.496;13.456;2022-08-01T09:38:43;22.60;60.20
70079;DHT22;57451;52.496;13.456;2022-08-01T09:41:09;22.60;60.30
70079;DHT22;57451;52.496;13.456;2022-08-01T09:43:38;22.60;60.40
70079;DHT22;57451;52.496;13.456;2022-08-01T09:46:09;22.60;60.40
70079;DHT22;57451;52.496;13.456;2022-08-01T09:48:36;22.60;60.70
70079;DHT22;57451;52.496;13.456;2022-08-01T09:51:06;22.60;60.20
70079;DHT22;57451;52.496;13.456;2022-08-01T09:53:44;22.60;60.10
70079;DHT22;57451;52.496;13.456;2022-08-01T09:56:11;22.70;60.40
70079;DHT22;57451;52.496;13.456;2022-08-01T09:58:50;22.70;59.80
70079;DHT22;57451;52.496;13.456;2022-08-01T10:01:20;22.70;60.30
70079;DHT22;57451;52.496;13.456;2022-08-01T10:03:47;22.70;60.90
70079;DHT22;57451;52.496;13.456;2022-08-01T10:06:20;22.60;60.70
70079;DHT22;57451;52.496;13.456;2022-08-01T10:08:48;22.60;61.00
70079;DHT22;57451;52.496;13.456;2022-08-01T10:11:14;22.60;61.30
70079;DHT22;57451;52.496;13.456;2022-08-01T10:13:41;22.50;61.40
70079;DHT22;57451;52.496;13.456;2022-08-01T10:16:09;22.50;61.40
70079;DHT22;57451;52.496;13.456;2022-08-01T10:18:37;22.50;61.70
70079;DHT22;57451;52.496;13.456;2022-08-01T10:21:06;22.50;62.10
70079;DHT22;57451;52.496;13.456;2022-08-01T10:23:34;22.50;61.50
70079;DHT22;57451;52.496;13.456;2022-08-01T10:26:01;22.50;61.50
70079;DHT22;57451;52.496;13.456;2022-08-01T10:28:30;22.60;61.80
70079;DHT22;57451;52.496;13.456;2022-08-01T10:30:57;22.60;61.90
70079;DHT22;57451;52.496;13.456;2022-08-01T10:33:25;22.60;61.00
70079;DHT22;57451;52.496;13.456;2022-08-01T10:35:51;22.60;61.20
70079;DHT22;57451;52.496;13.456;2022-08-01T10:38:17;22.60;61.00
70079;DHT22;57451;52.496;13.456;2022-08-01T10:40:44;22.60;61.20
70079;DHT22;57451;52.496;13.456;2022-08-01T10:43:11;22.60;60.80
70079;DHT22;57451;52.496;13.456;2022-08-01T10:45:37;22.60;60.60
70079;DHT22;57451;52.496;13.456;2022-08-01T10:48:09;22.70;61.00
70079;DHT22;57451;52.496;13.456;2022-08-01T10:50:42;22.80;60.60
70079;DHT22;57451;52.496;13.456;2022-08-01T10:53:12;22.80;60.30
70079;DHT22;57451;52.496;13.456;2022-08-01T10:55:50;22.80;60.40
70079;DHT22;57451;52.496;13.456;2022-08-01T10:58:24;22.90;60.50
70079;DHT22;57451;52.496;13.456;2022-08-01T11:01:13;22.80;60.20
70079;DHT22;57451;52.496;13.456;2022-08-01T11:03:39;22.90;60.70
70079;DHT22;57451;52.496;13.456;2022-08-01T11:06:16;22.90;60.10
70079;DHT22;57451;52.496;13.456;2022-08-01T11:08:50;23.00;60.30
70079;DHT22;57451;52.496;13.456;2022-08-01T11:11:17;23.00;59.90
70079;DHT22;57451;52.496;13.456;2022-08-01T11:14:00;23.00;60.00
70079;DHT22;57451;52.496;13.456;2022-08-01T11:16:28;23.00;59.90
70079;DHT22;57451;52.496;13.456;2022-08-01T11:18:54;23.10;59.80
70079;DHT22;57451;52.496;13.456;2022-08-01T11:21:22;23.10;59.80
70079;DHT22;57451;52.496;13.456;2022-08-01T11:23:52;23.20;59.30
70079;DHT22;57451;52.496;13.456;2022-08-01T11:26:20;23.30;59.40
70079;DHT22;57451;52.496;13.456;2022-08-01T11:29:12;23.30;59.30
70079;DHT22;57451;52.496;13.456;2022-08-01T11:31:38;23.20;59.10
70079;DHT22;57451;52.496;13.456;2022-08-01T11:34:05;23.20;59.30
70079;DHT22;57451;52.496;13.456;2022-08-01T11:36:32;23.20;59.20
70079;DHT22;57451;52.496;13.456;2022-08-01T11:39:14;23.10;60.80
70079;DHT22;57451;52.496;13.456;2022-08-01T11:41:42;23.00;62.00
70079;DHT22;57451;52.496;13.456;2022-08-01T11:44:09;23.00;61.90
70079;DHT22;57451;52.496;13.456;2022-08-01T11:46:45;23.00;63.00
70079;DHT22;57451;52.496;13.456;2022-08-01T11:49:28;22.90;63.40
70079;DHT22;57451;52.496;13.456;2022-08-01T11:52:01;22.90;63.60
70079;DHT22;57451;52.496;13.456;2022-08-01T11:54:30;22.80;63.40
70079;DHT22;57451;52.496;13.456;2022-08-01T11:56:58;22.90;63.20
70079;DHT22;57451;52.496;13.456;2022-08-01T11:59:24;22.80;62.70
70079;DHT22;57451;52.496;13.456;2022-08-01T12:01:50;22.70;62.60
70079;DHT22;57451;52.496;13.456;2022-08-01T12:04:17;22.70;62.50
70079;DHT22;57451;52.496;13.456;2022-08-01T12:06:43;22.70;62.40
70079;DHT22;57451;52.496;13.456;2022-08-01T12:09:19;22.80;62.10
70079;DHT22;57451;52.496;13.456;2022-08-01T12:11:46;22.80;62.10
70079;DHT22;57451;52.496;13.456;2022-08-01T12:14:17;22.90;62.00
70079;DHT22;57451;52.496;13.456;2022-08-01T12:16:51;22.90;62.20
70079;DHT22;57451;52.496;13.456;2022-08-01T12:19:20;23.00;61.70
70079;DHT22;57451;52.496;13.456;2022-08-01T12:22:05;23.10;60.90
70079;DHT22;57451;52.496;13.456;2022-08-01T12:24:34;23.10;60.60
70079;DHT22;57451;52.496;13.456;2022-08-01T12:27:00;23.20;60.50
70079;DHT22;57451;52.496;13.456;2022-08-01T12:29:38;23.30;60.10
70079;DHT22;57451;52.496;13.456;2022-08-01T12:32:21;23.50;59.70
70079;DHT22;57451;52.496;13.456;2022-08-01T12:34:47;23.60;59.20
70079;DHT22;57451;52.496;13.456;2022-08-01T12:37:13;23.60;58.60
70079;DHT22;57451;52.496;13.456;2022-08-01T12:39:41;23.70;58.50
70079;DHT22;57451;52.496;13.456;2022-08-01T12:42:08;23.80;58.30
70079;DHT22;57451;52.496;13.456;2022-08-01T12:44:36;23.90;58.20
70079;DHT22;57451;52.496;13.456;2022-08-01T12:47:04;24.00;58.00
70079;DHT22;57451;52.496;13.456;2022-08-01T12:49:31;24.10;57.40
70079;DHT22;57451;52.496;13.456;2022-08-01T12:51:58;24.20;57.60
70079;DHT22;57451;52.496;13.456;2022-08-01T12:54:24;24.20;57.10
70079;DHT22;57451;52.496;13.456;2022-08-01T12:56:52;24.20;57.10
70079;DHT22;57451;52.496;13.456;2022-08-01T12:59:24;24.30;56.90
70079;DHT22;57451;52.496;13.456;2022-08-01T13:01:54;24.30;56.80
70079;DHT22;57451;52.496;13.456;2022-08-01T13:04:21;24.40;56.70
70079;DHT22;57451;52.496;13.456;2022-08-01T13:06:47;24.40;56.30
70079;DHT22;57451;52.496;13.456;2022-08-01T13:09:14;24.40;56.20
70079;DHT22;57451;52.496;13.456;2022-08-01T13:11:40;24.50;56.20
70079;DHT22;57451;52.496;13.456;2022-08-01T13:14:08;24.60;56.00
70079;DHT22;57451;52.496;13.456;2022-08-01T13:16:46;24.70;55.50
70079;DHT22;57451;52.496;13.456;2022-08-01T13:19:12;24.70;55.10
70079;DHT22;57451;52.496;13.456;2022-08-01T13:21:39;24.80;54.80
70079;DHT22;57451;52.496;13.456;2022-08-01T13:24:07;24.80;54.80
70079;DHT22;57451;52.496;13.456;2022-08-01T13:26:40;24.80;54.90
70079;DHT22;57451;52.496;13.456;2022-08-01T13:29:10;24.80;55.00
70079;DHT22;57451;52.496;13.456;2022-08-01T13:31:38;24.80;54.90
70079;DHT22;57451;52.496;13.456;2022-08-01T13:34:05;24.90;55.00
70079;DHT22;57451;52.496;13.456;2022-08-01T13:36:31;24.70;55.20
70079;DHT22;57451;52.496;13.456;2022-08-01T13:38:57;24.70;55.60
70079;DHT22;57451;52.496;13.456;2022-08-01T13:41:42;24.70;55.50
70079;DHT22;57451;52.496;13.456;2022-08-01T13:44:10;24.70;55.50
70079;DHT22;57451;52.496;13.456;2022-08-01T13:46:37;24.70;55.80
70079;DHT22;57451;52.496;13.456;2022-08-01T13:49:05;24.70;55.50
70079;DHT22;57451;52.496;13.456;2022-08-01T13:51:32;24.70;55.10
70079;DHT22;57451;52.496;13.456;2022-08-01T13:53:58;24.60;55.00
70079;DHT22;57451;52.496;13.456;2022-08-01T13:56:25;24.60;55.10
70079;DHT22;57451;52.496;13.456;2022-08-01T13:58:53;24.50;55.30
70079;DHT22;57451;52.496;13.456;2022-08-01T14:01:21;24.60;55.20
70079;DHT22;57451;52.496;13.456;2022-08-01T14:03:47;24.60;55.20
70079;DHT22;57451;52.496;13.456;2022-08-01T14:06:14;24.50;55.40
70079;DHT22;57451;52.496;13.456;2022-08-01T14:08:42;24.40;55.70
70079;DHT22;57451;52.496;13.456;2022-08-01T14:11:08;24.30;56.00
70079;DHT22;57451;52.496;13.456;2022-08-01T14:13:35;24.20;56.30
70079;DHT22;57451;52.496;13.456;2022-08-01T14:16:04;24.20;56.20
70079;DHT22;57451;52.496;13.456;2022-08-01T14:18:32;24.20;56.40
70079;DHT22;57451;52.496;13.456;2022-08-01T14:20:58;24.30;56.40
70079;DHT22;57451;52.496;13.456;2022-08-01T14:23:24;24.30;57.00
70079;DHT22;57451;52.496;13.456;2022-08-01T14:25:51;24.30;56.90
70079;DHT22;57451;52.496;13.456;2022-08-01T14:28:17;24.40;57.40
70079;DHT22;57451;52.496;13.456;2022-08-01T14:30:43;24.50;57.10
70079;DHT22;57451;52.496;13.456;2022-08-01T14:33:10;24.50;57.10
70079;DHT22;57451;52.496;13.456;2022-08-01T14:35:38;24.60;56.70
70079;DHT22;57451;52.496;13.456;2022-08-01T14:38:04;24.70;56.50
70079;DHT22;57451;52.496;13.456;2022-08-01T14:40:30;24.70;57.20
70079;DHT22;57451;52.496;13.456;2022-08-01T14:42:56;24.90;57.00
70079;DHT22;57451;52.496;13.456;2022-08-01T14:45:23;25.00;56.70
70079;DHT22;57451;52.496;13.456;2022-08-01T14:47:49;25.20;56.60
70079;DHT22;57451;52.496;13.456;2022-08-01T14:50:15;25.30;56.20
70079;DHT22;57451;52.496;13.456;2022-08-01T14:52:43;25.50;53.60
70079;DHT22;57451;52.496;13.456;2022-08-01T14:55:11;25.60;51.30
70079;DHT22;57451;52.496;13.456;2022-08-01T14:57:38;25.80;52.80
70079;DHT22;57451;52.496;13.456;2022-08-01T15:00:07;25.90;53.40
70079;DHT22;57451;52.496;13.456;2022-08-01T15:02:35;26.10;53.30
70079;DHT22;57451;52.496;13.456;2022-08-01T15:05:01;26.20;53.20
70079;DHT22;57451;52.496;13.456;2022-08-01T15:07:27;26.30;52.80
70079;DHT22;57451;52.496;13.456;2022-08-01T15:09:54;26.30;52.80
70079;DHT22;57451;52.496;13.456;2022-08-01T15:12:20;26.40;52.80
70079;DHT22;57451;52.496;13.456;2022-08-01T15:14:47;26.30;53.10
70079;DHT22;57451;52.496;13.456;2022-08-01T15:17:20;26.30;53.10
70079;DHT22;57451;52.496;13.456;2022-08-01T15:19:48;26.20;53.00
70079;DHT22;57451;52.496;13.456;2022-08-01T15:22:15;26.20;53.10